| time (UTC) | temp F | wind direction | speed knots | gust knots | rain 1hr in | rain 24hr in | rain mn in | humidity % | barometer mb |
| 20260506025853 | 66 | 282 | 2.6 | 5.2 | 0.00 | 0.00 | 0.00 | 49 | 1012.5 |
| 20260506025350 | 66 | 269 | 0.0 | 0.9 | 0.00 | 0.00 | 0.00 | 48 | 1012.3 |
| 20260506024847 | 67 | 279 | 0.9 | 0.9 | 0.00 | 0.00 | 0.00 | 46 | 1012.4 |
| 20260506024344 | 67 | 242 | 0.9 | 1.7 | 0.00 | 0.00 | 0.00 | 44 | 1012.3 |
| 20260506023840 | 67 | 228 | 1.7 | 1.7 | 0.00 | 0.00 | 0.00 | 42 | 1012.0 |
| 20260506023337 | 68 | 146 | 0.0 | 0.0 | 0.00 | 0.00 | 0.00 | 41 | 1011.8 |
| 20260506022834 | 68 | 284 | 0.9 | 0.9 | 0.00 | 0.00 | 0.00 | 40 | 1012.0 |
| 20260506022332 | 68 | 148 | 0.0 | 0.0 | 0.00 | 0.00 | 0.00 | 39 | 1011.8 |
| 20260506021830 | 69 | 208 | 1.7 | 1.7 | 0.00 | 0.00 | 0.00 | 39 | 1012.0 |
| 20260506021326 | 69 | 13 | 0.9 | 0.9 | 0.00 | 0.00 | 0.00 | 39 | 1011.8 |
| 20260506020823 | 69 | 101 | 0.0 | 0.0 | 0.00 | 0.00 | 0.00 | 38 | 1011.8 |
| 20260506020321 | 69 | 338 | 0.9 | 0.9 | 0.00 | 0.00 | 0.00 | 38 | 1011.6 |
| 20260506015818 | 69 | 296 | 0.9 | 0.9 | 0.00 | 0.00 | 0.00 | 38 | 1011.9 |
| 20260506015315 | 71 | 253 | 0.9 | 1.7 | 0.00 | 0.00 | 0.00 | 37 | 1011.8 |
| 20260506014812 | 71 | 206 | 2.6 | 2.6 | 0.00 | 0.00 | 0.00 | 36 | 1011.5 |
| 20260506014309 | 70 | 333 | 1.7 | 1.7 | 0.00 | 0.00 | 0.00 | 36 | 1011.7 |
| 20260506013806 | 70 | 25 | 1.7 | 1.7 | 0.00 | 0.00 | 0.00 | 36 | 1011.7 |
| 20260506013303 | 70 | 342 | 3.5 | 4.3 | 0.00 | 0.00 | 0.00 | 36 | 1011.8 |
| 20260506012759 | 71 | 307 | 3.5 | 4.3 | 0.00 | 0.00 | 0.00 | 35 | 1011.9 |
| 20260506012256 | 71 | 300 | 1.7 | 1.7 | 0.00 | 0.00 | 0.00 | 34 | 1011.9 |
| 20260506011754 | 71 | 83 | 0.9 | 0.9 | 0.00 | 0.00 | 0.00 | 35 | 1011.8 |
| 20260506011250 | 72 | 36 | 3.5 | 4.3 | 0.00 | 0.00 | 0.00 | 34 | 1011.9 |
| 20260506010748 | 71 | 136 | 0.0 | 0.9 | 0.00 | 0.00 | 0.00 | 35 | 1012.2 |
| 20260506010245 | 72 | 53 | 4.3 | 5.2 | 0.00 | 0.00 | 0.00 | 34 | 1011.8 |
| 20260506005742 | 73 | 335 | 1.7 | 1.7 | 0.00 | 0.00 | 0.00 | 34 | 1011.8 |
| 20260506005239 | 72 | 9 | 2.6 | 2.6 | 0.00 | 0.00 | 0.00 | 35 | 1012.0 |
| 20260506004735 | 72 | 64 | 0.9 | 0.9 | 0.00 | 0.00 | 0.00 | 35 | 1011.9 |
| 20260506004233 | 72 | 340 | 3.5 | 4.3 | 0.00 | 0.00 | 0.00 | 35 | 1011.8 |
| 20260506003728 | 71 | 4 | 3.5 | 5.2 | 0.00 | 0.00 | 0.00 | 35 | 1011.9 |
| 20260506003225 | 72 | 277 | 1.7 | 2.6 | 0.00 | 0.00 | 0.00 | 35 | 1011.8 |
| 20260506002721 | 72 | 215 | 2.6 | 2.6 | 0.00 | 0.00 | 0.00 | 35 | 1011.7 |
| 20260506002217 | 72 | 356 | 4.3 | 7.0 | 0.00 | 0.00 | 0.00 | 36 | 1012.0 |
| 20260506001713 | 72 | 346 | 1.7 | 4.3 | 0.00 | 0.00 | 0.00 | 36 | 1011.8 |
| 20260506001211 | 73 | 326 | 5.2 | 7.0 | 0.00 | 0.00 | 0.00 | 35 | 1011.8 |
| 20260506000708 | 73 | 41 | 3.5 | 4.3 | 0.00 | 0.00 | 0.00 | 35 | 1011.9 |
| 20260506000205 | 72 | 20 | 1.7 | 1.7 | 0.00 | 0.00 | 0.00 | 36 | 1011.9 |
| 20260505235703 | 72 | 344 | 2.6 | 2.6 | 0.00 | 0.00 | 0.00 | 36 | 1011.8 |
| 20260505235200 | 71 | 251 | 4.3 | 5.2 | 0.00 | 0.00 | 0.00 | 35 | 1011.9 |
| 20260505234657 | 71 | 56 | 0.9 | 1.7 | 0.00 | 0.00 | 0.00 | 36 | 1011.8 |
| 20260505234154 | 73 | 164 | 2.6 | 2.6 | 0.00 | 0.00 | 0.00 | 33 | 1012.0 |
| 20260505233650 | 72 | 120 | 0.9 | 1.7 | 0.00 | 0.00 | 0.00 | 34 | 1012.2 |
| 20260505233148 | 72 | 155 | 0.9 | 1.7 | 0.00 | 0.00 | 0.00 | 34 | 1011.9 |
| 20260505232646 | 71 | 115 | 1.7 | 2.6 | 0.00 | 0.00 | 0.00 | 36 | 1011.8 |
| 20260505232143 | 71 | 154 | 0.9 | 0.9 | 0.00 | 0.00 | 0.00 | 34 | 1012.0 |
| 20260505231639 | 71 | 41 | 2.6 | 4.3 | 0.00 | 0.00 | 0.00 | 33 | 1012.3 |
| 20260505231139 | 70 | 34 | 1.7 | 2.6 | 0.00 | 0.00 | 0.00 | 36 | 1012.2 |
| 20260505230636 | 70 | 43 | 0.9 | 0.9 | 0.00 | 0.00 | 0.00 | 37 | 1011.9 |
| 20260505230132 | 71 | 238 | 2.6 | 2.6 | 0.00 | 0.00 | 0.00 | 36 | 1012.2 |
| 20260505225629 | 73 | 246 | 3.5 | 4.3 | 0.00 | 0.00 | 0.00 | 34 | 1011.9 |
| 20260505225125 | 71 | 259 | 1.7 | 1.7 | 0.00 | 0.00 | 0.00 | 35 | 1012.3 |
| 20260505224622 | 71 | 307 | 1.7 | 1.7 | 0.00 | 0.00 | 0.00 | 35 | 1012.4 |
| 20260505224119 | 69 | 299 | 1.7 | 1.7 | 0.00 | 0.00 | 0.00 | 36 | 1012.4 |
| 20260505223616 | 71 | 51 | 6.1 | 8.7 | 0.00 | 0.00 | 0.00 | 36 | 1012.3 |
| 20260505223113 | 71 | 136 | 0.9 | 1.7 | 0.00 | 0.00 | 0.00 | 37 | 1012.6 |
| 20260505222609 | 70 | 143 | 2.6 | 2.6 | 0.00 | 0.00 | 0.00 | 38 | 1012.5 |
| 20260505222105 | 70 | 333 | 5.2 | 6.1 | 0.00 | 0.00 | 0.00 | 37 | 1012.4 |
| 20260505221602 | 70 | 56 | 0.9 | 0.9 | 0.00 | 0.00 | 0.00 | 38 | 1012.6 |
| 20260505221059 | 70 | 357 | 1.7 | 2.6 | 0.00 | 0.00 | 0.00 | 41 | 1012.7 |
| 20260505220556 | 72 | 294 | 2.6 | 2.6 | 0.00 | 0.00 | 0.00 | 37 | 1012.8 |
| 20260505220054 | 71 | 113 | 0.9 | 0.9 | 0.00 | 0.00 | 0.00 | 38 | 1012.7 |
| 20260505215552 | 70 | 306 | 0.9 | 1.7 | 0.00 | 0.00 | 0.00 | 40 | 1013.0 |
| 20260505215049 | 69 | 213 | 2.6 | 2.6 | 0.00 | 0.00 | 0.00 | 41 | 1012.8 |
| 20260505214548 | 70 | 162 | 0.9 | 0.9 | 0.00 | 0.00 | 0.00 | 41 | 1013.1 |
| 20260505214044 | 68 | 132 | 0.9 | 0.9 | 0.00 | 0.00 | 0.00 | 41 | 1013.0 |
| 20260505213542 | 68 | 310 | 2.6 | 4.3 | 0.00 | 0.00 | 0.00 | 43 | 1013.3 |
| 20260505213038 | 68 | 347 | 4.3 | 6.1 | 0.00 | 0.00 | 0.00 | 42 | 1013.1 |
| 20260505212534 | 68 | 6 | 4.3 | 5.2 | 0.00 | 0.00 | 0.00 | 43 | 1013.2 |
| 20260505212032 | 68 | 74 | 0.0 | 0.9 | 0.00 | 0.00 | 0.00 | 43 | 1013.4 |
| 20260505211529 | 67 | 40 | 1.7 | 1.7 | 0.00 | 0.00 | 0.00 | 44 | 1013.2 |
| 20260505211025 | 67 | 136 | 1.7 | 1.7 | 0.00 | 0.00 | 0.00 | 45 | 1013.5 |
| 20260505210522 | 67 | 30 | 0.9 | 0.9 | 0.00 | 0.00 | 0.00 | 45 | 1013.5 |
| 20260505210019 | 66 | 71 | 1.7 | 2.6 | 0.00 | 0.00 | 0.00 | 46 | 1013.5 |
| 20260505205517 | 66 | 123 | 4.3 | 5.2 | 0.00 | 0.00 | 0.00 | 47 | 1013.4 |
| 20260505205014 | 67 | 238 | 0.0 | 0.9 | 0.00 | 0.00 | 0.00 | 43 | 1013.8 |
| 20260505204512 | 65 | 79 | 0.9 | 1.7 | 0.00 | 0.00 | 0.00 | 46 | 1013.9 |
| 20260505204009 | 65 | 53 | 2.6 | 4.3 | 0.00 | 0.00 | 0.00 | 47 | 1013.9 |
| 20260505203505 | 65 | 30 | 4.3 | 6.1 | 0.00 | 0.00 | 0.00 | 47 | 1013.6 |
| 20260505203002 | 65 | 35 | 4.3 | 7.0 | 0.00 | 0.00 | 0.00 | 47 | 1013.6 |
| 20260505202458 | 66 | 53 | 2.6 | 4.3 | 0.00 | 0.00 | 0.00 | 45 | 1013.8 |
| 20260505201954 | 65 | 71 | 1.7 | 2.6 | 0.00 | 0.00 | 0.00 | 48 | 1013.8 |
| 20260505201451 | 65 | 160 | 2.6 | 2.6 | 0.00 | 0.00 | 0.00 | 48 | 1014.0 |
| 20260505200949 | 64 | 348 | 2.6 | 4.3 | 0.00 | 0.00 | 0.00 | 51 | 1013.9 |
| 20260505200447 | 64 | 345 | 2.6 | 2.6 | 0.00 | 0.00 | 0.00 | 53 | 1013.8 |
| 20260505195942 | 67 | 156 | 0.9 | 0.9 | 0.00 | 0.00 | 0.00 | 47 | 1014.1 |
| 20260505195440 | 65 | 198 | 0.9 | 1.7 | 0.00 | 0.00 | 0.00 | 50 | 1014.0 |
| 20260505194937 | 64 | 347 | 1.7 | 1.7 | 0.00 | 0.00 | 0.00 | 50 | 1014.0 |
| 20260505194434 | 64 | 71 | 0.9 | 1.7 | 0.00 | 0.00 | 0.00 | 52 | 1013.9 |
| 20260505193934 | 64 | 75 | 0.9 | 1.7 | 0.00 | 0.00 | 0.00 | 52 | 1013.9 |
| 20260505193432 | 65 | 108 | 1.7 | 1.7 | 0.00 | 0.00 | 0.00 | 50 | 1014.2 |
| 20260505192930 | 63 | 122 | 0.9 | 0.9 | 0.00 | 0.00 | 0.00 | 51 | 1014.1 |
| 20260505192428 | 62 | 71 | 0.0 | 0.9 | 0.00 | 0.00 | 0.00 | 55 | 1014.1 |
| 20260505191925 | 62 | 165 | 2.6 | 2.6 | 0.00 | 0.00 | 0.00 | 55 | 1014.5 |
| 20260505191424 | 61 | 194 | 1.7 | 1.7 | 0.00 | 0.00 | 0.00 | 54 | 1014.3 |
| 20260505190920 | 60 | 54 | 1.7 | 1.7 | 0.00 | 0.00 | 0.00 | 58 | 1014.2 |
| 20260505190415 | 62 | 354 | 2.6 | 4.3 | 0.00 | 0.00 | 0.00 | 57 | 1014.2 |
| 20260505185910 | 62 | 207 | 2.6 | 2.6 | 0.00 | 0.00 | 0.00 | 58 | 1014.1 |
| 20260505185408 | 60 | 128 | 0.9 | 1.7 | 0.00 | 0.00 | 0.00 | 58 | 1014.0 |
| 20260505184904 | 60 | 352 | 1.7 | 4.3 | 0.00 | 0.00 | 0.00 | 60 | 1014.2 |
| 20260505184401 | 60 | 76 | 1.7 | 1.7 | 0.00 | 0.00 | 0.00 | 59 | 1014.0 |
| 20260505183858 | 59 | 12 | 2.6 | 2.6 | 0.00 | 0.00 | 0.00 | 61 | 1014.2 |
| 20260505183355 | 59 | 71 | 1.7 | 1.7 | 0.00 | 0.00 | 0.00 | 63 | 1014.2 |
| 20260505182851 | 58 | 55 | 0.9 | 0.9 | 0.00 | 0.00 | 0.00 | 61 | 1014.2 |
| 20260505182348 | 58 | 27 | 0.9 | 0.9 | 0.00 | 0.00 | 0.00 | 61 | 1014.3 |
| 20260505181845 | 60 | 78 | 0.9 | 1.7 | 0.00 | 0.00 | 0.00 | 59 | 1014.1 |
| 20260505181342 | 60 | 225 | 1.7 | 2.6 | 0.00 | 0.00 | 0.00 | 61 | 1014.1 |
| 20260505180839 | 59 | 210 | 0.9 | 1.7 | 0.00 | 0.00 | 0.00 | 63 | 1014.1 |
| 20260505180335 | 58 | 262 | 0.9 | 1.7 | 0.00 | 0.00 | 0.00 | 66 | 1014.1 |
| 20260505175832 | 58 | 122 | 0.9 | 1.7 | 0.00 | 0.00 | 0.00 | 65 | 1014.1 |
| 20260505175328 | 57 | 134 | 0.9 | 1.7 | 0.00 | 0.00 | 0.00 | 68 | 1014.2 |
| 20260505174825 | 57 | 113 | 2.6 | 4.3 | 0.00 | 0.00 | 0.00 | 68 | 1014.1 |
| 20260505174323 | 55 | 96 | 0.0 | 0.0 | 0.00 | 0.00 | 0.00 | 70 | 1014.1 |
| 20260505173818 | 56 | 161 | 2.6 | 4.3 | 0.00 | 0.00 | 0.00 | 70 | 1014.0 |
| 20260505173315 | 56 | 101 | 0.9 | 0.9 | 0.00 | 0.00 | 0.00 | 71 | 1014.0 |
| 20260505172812 | 54 | 127 | 1.7 | 2.6 | 0.00 | 0.00 | 0.00 | 71 | 1014.0 |
| 20260505172310 | 54 | 163 | 2.6 | 4.3 | 0.00 | 0.00 | 0.00 | 74 | 1014.0 |
| 20260505171804 | 54 | 71 | 1.7 | 1.7 | 0.00 | 0.00 | 0.00 | 72 | 1013.9 |
| 20260505171301 | 54 | 177 | 0.9 | 1.7 | 0.00 | 0.00 | 0.00 | 74 | 1014.1 |
| 20260505170757 | 54 | 174 | 3.5 | 4.3 | 0.00 | 0.00 | 0.00 | 74 | 1013.8 |
| 20260505170255 | 53 | 158 | 0.9 | 1.7 | 0.00 | 0.00 | 0.00 | 74 | 1013.9 |
| 20260505165755 | 53 | 218 | 0.9 | 0.9 | 0.00 | 0.00 | 0.00 | 76 | 1014.0 |
| 20260505165251 | 52 | 153 | 1.7 | 1.7 | 0.00 | 0.00 | 0.00 | 76 | 1013.9 |
| 20260505164747 | 52 | 169 | 1.7 | 1.7 | 0.00 | 0.00 | 0.00 | 78 | 1013.9 |
| 20260505164244 | 52 | 169 | 3.5 | 4.3 | 0.00 | 0.00 | 0.00 | 77 | 1013.8 |
| 20260505163743 | 51 | 175 | 0.9 | 1.7 | 0.00 | 0.00 | 0.00 | 79 | 1013.9 |
| 20260505163241 | 51 | 152 | 1.7 | 1.7 | 0.00 | 0.00 | 0.00 | 80 | 1013.6 |
| 20260505162738 | 50 | 144 | 0.9 | 0.9 | 0.00 | 0.00 | 0.00 | 82 | 1013.9 |
| 20260505162235 | 50 | 139 | 0.9 | 1.7 | 0.00 | 0.00 | 0.00 | 82 | 1013.6 |
| 20260505161732 | 50 | 146 | 1.7 | 1.7 | 0.00 | 0.00 | 0.00 | 81 | 1013.6 |
| 20260505161230 | 50 | 151 | 1.7 | 1.7 | 0.00 | 0.00 | 0.00 | 82 | 1013.6 |
| 20260505160726 | 50 | 209 | 1.7 | 1.7 | 0.00 | 0.00 | 0.00 | 80 | 1013.4 |
| 20260505160225 | 50 | 137 | 0.0 | 0.9 | 0.00 | 0.00 | 0.00 | 78 | 1013.6 |
| 20260505153203 | 49 | 128 | 0.0 | 0.9 | 0.00 | 0.00 | 0.00 | 80 | 1013.3 |
| 20260505152700 | 49 | 248 | 0.9 | 0.9 | 0.00 | 0.00 | 0.00 | 81 | 1013.2 |
| 20260505152156 | 49 | 344 | 0.9 | 0.9 | 0.00 | 0.00 | 0.00 | 81 | 1013.2 |
| 20260505151651 | 49 | 344 | 0.9 | 0.9 | 0.00 | 0.00 | 0.00 | 81 | 1013.2 |
| 20260505151149 | 48 | 308 | 1.7 | 1.7 | 0.00 | 0.00 | 0.00 | 81 | 1013.1 |
| 20260505150645 | 48 | 314 | 1.7 | 1.7 | 0.00 | 0.00 | 0.00 | 83 | 1013.0 |
| 20260505150142 | 48 | 283 | 0.0 | 0.9 | 0.00 | 0.00 | 0.00 | 85 | 1013.0 |
| 20260505140610 | 47 | 189 | 0.9 | 1.7 | 0.00 | 0.00 | 0.00 | 89 | 1012.4 |
| 20260505140108 | 47 | 148 | 2.6 | 2.6 | 0.00 | 0.00 | 0.00 | 88 | 1012.4 |
| 20260505125024 | 46 | 188 | 0.9 | 0.9 | 0.00 | 0.00 | 0.00 | 88 | 1011.9 |
| 20260505124521 | 46 | 156 | 0.0 | 0.0 | 0.00 | 0.00 | 0.00 | 88 | 1011.8 |
| 20260505124017 | 46 | 175 | 0.0 | 0.9 | 0.00 | 0.00 | 0.00 | 87 | 1011.8 |
| 20260505123514 | 46 | 176 | 0.0 | 0.0 | 0.00 | 0.00 | 0.00 | 88 | 1011.6 |
| 20260505123010 | 46 | 124 | 0.0 | 0.0 | 0.00 | 0.00 | 0.00 | 87 | 1011.8 |
| 20260505122507 | 46 | 196 | 0.0 | 0.9 | 0.00 | 0.00 | 0.00 | 86 | 1011.6 |
| 20260505122004 | 46 | 179 | 0.0 | 0.0 | 0.00 | 0.00 | 0.00 | 86 | 1011.5 |
| 20260505121500 | 46 | 220 | 0.0 | 0.9 | 0.00 | 0.00 | 0.00 | 87 | 1011.9 |
| 20260505120956 | 46 | 203 | 0.9 | 0.9 | 0.00 | 0.00 | 0.00 | 86 | 1011.8 |
| 20260505120453 | 46 | 175 | 0.0 | 0.0 | 0.00 | 0.00 | 0.00 | 87 | 1011.6 |
| 20260505115952 | 46 | 155 | 0.0 | 0.0 | 0.00 | 0.00 | 0.00 | 86 | 1011.8 |
| 20260505115449 | 46 | 164 | 0.0 | 0.0 | 0.00 | 0.00 | 0.00 | 86 | 1011.6 |
| 20260505114947 | 46 | 216 | 0.0 | 0.0 | 0.00 | 0.00 | 0.00 | 85 | 1011.8 |
| 20260505114442 | 46 | 235 | 0.0 | 0.0 | 0.00 | 0.00 | 0.00 | 84 | 1011.6 |
| 20260505113939 | 46 | 221 | 0.0 | 0.0 | 0.00 | 0.00 | 0.00 | 84 | 1011.8 |
| 20260505113436 | 46 | 296 | 0.0 | 0.9 | 0.00 | 0.00 | 0.00 | 84 | 1011.7 |
| 20260505112932 | 46 | 243 | 0.9 | 1.7 | 0.00 | 0.00 | 0.00 | 84 | 1011.7 |
| 20260505112430 | 46 | 253 | 0.9 | 1.7 | 0.00 | 0.00 | 0.00 | 84 | 1011.7 |
| 20260505111925 | 46 | 254 | 0.0 | 0.9 | 0.00 | 0.00 | 0.00 | 84 | 1011.6 |
| 20260505111420 | 46 | 241 | 0.9 | 2.6 | 0.00 | 0.00 | 0.00 | 85 | 1011.7 |
| 20260505110917 | 46 | 211 | 0.9 | 0.9 | 0.00 | 0.00 | 0.00 | 86 | 1011.4 |
| 20260505110414 | 46 | 248 | 0.0 | 0.0 | 0.00 | 0.00 | 0.00 | 86 | 1011.7 |
| 20260505101844 | 46 | 262 | 0.0 | 0.0 | 0.00 | 0.00 | 0.00 | 92 | 1011.9 |
| 20260505101339 | 46 | 267 | 0.0 | 0.0 | 0.00 | 0.00 | 0.00 | 92 | 1012.2 |
| 20260505100835 | 46 | 204 | 0.9 | 1.7 | 0.00 | 0.00 | 0.00 | 92 | 1011.8 |
| 20260505100332 | 46 | 207 | 0.9 | 0.9 | 0.00 | 0.00 | 0.00 | 92 | 1011.9 |
| 20260505095828 | 46 | 220 | 0.9 | 0.9 | 0.00 | 0.00 | 0.00 | 92 | 1011.9 |
| 20260505095326 | 46 | 182 | 1.7 | 1.7 | 0.00 | 0.00 | 0.00 | 90 | 1011.9 |
| 20260505094821 | 46 | 205 | 0.0 | 0.0 | 0.00 | 0.00 | 0.00 | 89 | 1011.9 |
| 20260505094319 | 46 | 222 | 1.7 | 1.7 | 0.00 | 0.00 | 0.00 | 88 | 1012.3 |
| 20260505093814 | 46 | 185 | 2.6 | 2.6 | 0.00 | 0.00 | 0.00 | 86 | 1012.3 |
| 20260505093312 | 46 | 207 | 1.7 | 1.7 | 0.00 | 0.00 | 0.00 | 84 | 1012.0 |
| 20260505092808 | 45 | 208 | 0.9 | 0.9 | 0.00 | 0.00 | 0.00 | 85 | 1012.2 |
| 20260505092307 | 45 | 228 | 1.7 | 1.7 | 0.00 | 0.00 | 0.00 | 84 | 1012.0 |
| 20260505091804 | 45 | 299 | 1.7 | 1.7 | 0.00 | 0.00 | 0.00 | 84 | 1012.2 |
| 20260505091302 | 45 | 249 | 1.7 | 1.7 | 0.00 | 0.00 | 0.00 | 84 | 1012.0 |
| 20260505090800 | 45 | 326 | 3.5 | 4.3 | 0.00 | 0.00 | 0.00 | 84 | 1011.9 |
| 20260505090258 | 45 | 5 | 1.7 | 1.7 | 0.00 | 0.00 | 0.00 | 85 | 1012.3 |
| 20260505085755 | 45 | 14 | 0.0 | 0.9 | 0.00 | 0.00 | 0.00 | 86 | 1012.2 |
| 20260505085253 | 45 | 9 | 0.0 | 0.0 | 0.00 | 0.00 | 0.00 | 86 | 1012.3 |
| 20260505084749 | 45 | 36 | 0.9 | 0.9 | 0.00 | 0.00 | 0.00 | 86 | 1012.0 |
| 20260505084249 | 45 | 297 | 1.7 | 1.7 | 0.00 | 0.00 | 0.00 | 86 | 1012.4 |
| 20260505083745 | 45 | 255 | 2.6 | 2.6 | 0.00 | 0.00 | 0.00 | 86 | 1012.3 |
| 20260505083242 | 45 | 236 | 0.9 | 1.7 | 0.00 | 0.00 | 0.00 | 87 | 1012.6 |
| 20260505082738 | 45 | 203 | 0.9 | 1.7 | 0.00 | 0.00 | 0.00 | 86 | 1012.4 |
| 20260505082236 | 45 | 200 | 0.0 | 0.9 | 0.00 | 0.00 | 0.00 | 87 | 1012.5 |
| 20260505081731 | 45 | 218 | 0.9 | 0.9 | 0.00 | 0.00 | 0.00 | 87 | 1012.7 |
| 20260505081229 | 45 | 162 | 0.0 | 0.0 | 0.00 | 0.00 | 0.00 | 87 | 1012.8 |
| 20260505080726 | 45 | 237 | 1.7 | 1.7 | 0.00 | 0.00 | 0.00 | 87 | 1012.7 |
| 20260505080221 | 45 | 346 | 0.0 | 0.0 | 0.00 | 0.00 | 0.00 | 87 | 1012.5 |
| 20260505075717 | 45 | 333 | 2.6 | 2.6 | 0.00 | 0.00 | 0.00 | 88 | 1012.6 |
| 20260505075214 | 45 | 352 | 0.0 | 0.9 | 0.00 | 0.00 | 0.00 | 90 | 1012.3 |
| 20260505074712 | 45 | 303 | 0.9 | 0.9 | 0.00 | 0.00 | 0.00 | 92 | 1012.5 |
| 20260505074209 | 45 | 17 | 0.9 | 0.9 | 0.00 | 0.00 | 0.00 | 92 | 1012.8 |
| 20260505073706 | 45 | 219 | 1.7 | 2.6 | 0.00 | 0.00 | 0.00 | 94 | 1012.5 |
| 20260505073204 | 44 | 258 | 0.0 | 0.9 | 0.00 | 0.00 | 0.00 | 95 | 1013.0 |
| 20260505072700 | 44 | 233 | 0.0 | 0.0 | 0.00 | 0.00 | 0.00 | 95 | 1013.0 |
| 20260505072156 | 44 | 196 | 0.0 | 0.0 | 0.00 | 0.00 | 0.00 | 95 | 1012.8 |
| 20260505071652 | 44 | 150 | 0.0 | 0.0 | 0.00 | 0.00 | 0.00 | 94 | 1013.1 |
| 20260505071150 | 44 | 133 | 0.0 | 0.0 | 0.00 | 0.00 | 0.00 | 94 | 1012.7 |
| 20260505070647 | 45 | 125 | 0.0 | 0.0 | 0.00 | 0.00 | 0.00 | 93 | 1012.7 |
| 20260505070143 | 45 | 124 | 0.0 | 0.0 | 0.00 | 0.00 | 0.00 | 93 | 1012.5 |
| 20260505065639 | 45 | 208 | 0.9 | 0.9 | 0.00 | 0.32 | 0.32 | 93 | 1012.7 |
| 20260505065136 | 45 | 258 | 0.0 | 0.0 | 0.00 | 0.32 | 0.32 | 92 | 1012.6 |
| 20260505064633 | 46 | 166 | 0.0 | 0.0 | 0.00 | 0.32 | 0.32 | 91 | 1012.5 |
| 20260505064131 | 46 | 166 | 0.0 | 0.0 | 0.00 | 0.32 | 0.32 | 91 | 1012.2 |
| 20260505063628 | 46 | 171 | 1.7 | 1.7 | 0.00 | 0.32 | 0.32 | 90 | 1012.0 |
| 20260505063124 | 46 | 198 | 0.9 | 0.9 | 0.00 | 0.32 | 0.32 | 91 | 1011.9 |
| 20260505062620 | 46 | 155 | 0.9 | 1.7 | 0.00 | 0.32 | 0.32 | 90 | 1011.8 |
| 20260505062118 | 46 | 186 | 0.9 | 1.7 | 0.00 | 0.32 | 0.32 | 89 | 1011.7 |
| 20260505061615 | 46 | 179 | 0.0 | 0.0 | 0.00 | 0.32 | 0.32 | 89 | 1011.8 |
| 20260505061113 | 46 | 86 | 0.0 | 0.0 | 0.00 | 0.32 | 0.32 | 86 | 1011.9 |
| 20260505060610 | 46 | 141 | 0.9 | 0.9 | 0.00 | 0.32 | 0.32 | 84 | 1011.9 |
| 20260505060107 | 46 | 164 | 0.0 | 0.9 | 0.00 | 0.32 | 0.32 | 84 | 1011.7 |
| 20260505055602 | 46 | 173 | 0.0 | 0.9 | 0.00 | 0.32 | 0.32 | 82 | 1011.8 |
| 20260505055059 | 46 | 189 | 2.6 | 2.6 | 0.00 | 0.32 | 0.32 | 82 | 1011.7 |
| 20260505054556 | 46 | 201 | 2.6 | 4.3 | 0.00 | 0.32 | 0.32 | 83 | 1011.9 |
| 20260505054055 | 46 | 251 | 1.7 | 2.6 | 0.00 | 0.32 | 0.32 | 83 | 1012.0 |
| 20260505053551 | 46 | 274 | 1.7 | 1.7 | 0.00 | 0.32 | 0.32 | 84 | 1011.9 |
| 20260505053048 | 46 | 180 | 0.9 | 1.7 | 0.00 | 0.32 | 0.32 | 84 | 1012.2 |
| 20260505052545 | 46 | 237 | 0.9 | 0.9 | 0.00 | 0.32 | 0.32 | 84 | 1012.2 |
| 20260505052043 | 46 | 238 | 4.3 | 6.1 | 0.00 | 0.32 | 0.32 | 83 | 1012.2 |
| 20260505051539 | 46 | 10 | 0.0 | 0.9 | 0.00 | 0.32 | 0.32 | 83 | 1012.4 |
| 20260505051037 | 46 | 331 | 2.6 | 2.6 | 0.00 | 0.32 | 0.32 | 83 | 1012.4 |
| 20260505050535 | 46 | 232 | 0.0 | 0.9 | 0.00 | 0.32 | 0.32 | 84 | 1012.3 |
| 20260505041503 | 45 | 235 | 3.5 | 4.3 | 0.00 | 0.32 | 0.32 | 90 | 1011.6 |
| 20260505041000 | 44 | 246 | 4.3 | 6.1 | 0.00 | 0.32 | 0.32 | 90 | 1011.6 |
| 20260505040457 | 44 | 222 | 2.6 | 2.6 | 0.00 | 0.32 | 0.32 | 91 | 1012.2 |
| 20260505035954 | 44 | 193 | 1.7 | 2.6 | 0.00 | 0.32 | 0.32 | 90 | 1012.0 |
| 20260505035450 | 44 | 296 | 2.6 | 2.6 | 0.00 | 0.32 | 0.32 | 91 | 1012.2 |
| 20260505034948 | 45 | 334 | 0.9 | 1.7 | 0.00 | 0.32 | 0.32 | 90 | 1012.0 |
| 20260505034444 | 45 | 313 | 1.7 | 2.6 | 0.07 | 0.32 | 0.32 | 91 | 1011.8 |
| 20260505033941 | 45 | 294 | 2.6 | 2.6 | 0.07 | 0.32 | 0.32 | 91 | 1011.8 |
| 20260505033437 | 45 | 333 | 5.2 | 6.1 | 0.00 | 0.31 | 0.31 | 91 | 1011.8 |
| 20260505032936 | 45 | 315 | 1.7 | 1.7 | 0.00 | 0.31 | 0.31 | 91 | 1011.5 |
| 20260505032433 | 45 | 214 | 5.2 | 7.0 | 0.05 | 0.31 | 0.31 | 91 | 1011.2 |
| 20260505031929 | 45 | 206 | 2.6 | 4.3 | 0.17 | 0.31 | 0.31 | 92 | 1011.4 |
| 20260505031426 | 45 | 174 | 2.6 | 2.6 | 0.19 | 0.30 | 0.30 | 93 | 1012.0 |
| 20260505030923 | 44 | 214 | 0.9 | 1.7 | 0.07 | 0.28 | 0.28 | 92 | 1012.0 |
| 20260505030419 | 44 | 321 | 2.6 | 2.6 | 0.05 | 0.27 | 0.27 | 91 | 1011.9 |